sensor_id;sensor_type;location;lat;lon;timestamp;temperature;humidity
54846;DHT22;53889;50.084;8.646;2022-09-19T00:01:07;9.00;99.90
54846;DHT22;53889;50.084;8.646;2022-09-19T00:03:35;9.10;99.90
54846;DHT22;53889;50.084;8.646;2022-09-19T00:06:02;9.10;99.90
54846;DHT22;53889;50.084;8.646;2022-09-19T00:08:29;9.20;99.90
54846;DHT22;53889;50.084;8.646;2022-09-19T00:10:55;9.20;99.90
54846;DHT22;53889;50.084;8.646;2022-09-19T00:13:23;9.20;99.90
54846;DHT22;53889;50.084;8.646;2022-09-19T00:15:50;9.20;99.90
54846;DHT22;53889;50.084;8.646;2022-09-19T00:18:17;9.30;99.90
54846;DHT22;53889;50.084;8.646;2022-09-19T00:20:44;9.30;99.90
54846;DHT22;53889;50.084;8.646;2022-09-19T00:23:13;9.40;99.90
54846;DHT22;53889;50.084;8.646;2022-09-19T00:25:58;9.30;99.90
54846;DHT22;53889;50.084;8.646;2022-09-19T00:28:27;9.40;99.90
54846;DHT22;53889;50.084;8.646;2022-09-19T00:30:54;9.40;99.90
54846;DHT22;53889;50.084;8.646;2022-09-19T00:33:22;9.40;99.90
54846;DHT22;53889;50.084;8.646;2022-09-19T00:35:56;9.40;99.90
54846;DHT22;53889;50.084;8.646;2022-09-19T00:38:25;9.40;99.90
54846;DHT22;53889;50.084;8.646;2022-09-19T00:40:52;9.40;99.90
54846;DHT22;53889;50.084;8.646;2022-09-19T00:43:21;9.40;99.90
54846;DHT22;53889;50.084;8.646;2022-09-19T00:45:49;9.40;99.90
54846;DHT22;53889;50.084;8.646;2022-09-19T00:48:17;9.50;99.90
54846;DHT22;53889;50.084;8.646;2022-09-19T00:50:50;9.50;99.90
54846;DHT22;53889;50.084;8.646;2022-09-19T00:53:21;9.50;99.90
54846;DHT22;53889;50.084;8.646;2022-09-19T00:55:53;9.50;99.90
54846;DHT22;53889;50.084;8.646;2022-09-19T00:58:24;9.50;99.90
54846;DHT22;53889;50.084;8.646;2022-09-19T01:00:53;9.60;99.90
54846;DHT22;53889;50.084;8.646;2022-09-19T01:03:22;9.60;99.90
54846;DHT22;53889;50.084;8.646;2022-09-19T01:06:05;9.60;99.90
54846;DHT22;53889;50.084;8.646;2022-09-19T01:08:47;9.60;99.90
54846;DHT22;53889;50.084;8.646;2022-09-19T01:11:32;9.60;99.90
54846;DHT22;53889;50.084;8.646;2022-09-19T01:14:12;9.60;99.90
54846;DHT22;53889;50.084;8.646;2022-09-19T01:16:48;9.60;99.90
54846;DHT22;53889;50.084;8.646;2022-09-19T01:19:28;9.50;99.90
54846;DHT22;53889;50.084;8.646;2022-09-19T01:22:05;9.50;99.90
54846;DHT22;53889;50.084;8.646;2022-09-19T01:24:56;9.50;99.90
54846;DHT22;53889;50.084;8.646;2022-09-19T01:27:56;9.50;99.90
54846;DHT22;53889;50.084;8.646;2022-09-19T01:30:26;9.50;99.90
54846;DHT22;53889;50.084;8.646;2022-09-19T01:32:56;9.40;99.90
54846;DHT22;53889;50.084;8.646;2022-09-19T01:35:28;9.50;99.90
54846;DHT22;53889;50.084;8.646;2022-09-19T01:37:59;9.50;99.90
54846;DHT22;53889;50.084;8.646;2022-09-19T01:40:30;9.50;99.90
54846;DHT22;53889;50.084;8.646;2022-09-19T01:43:03;9.50;99.90
54846;DHT22;53889;50.084;8.646;2022-09-19T01:45:34;9.60;99.90
54846;DHT22;53889;50.084;8.646;2022-09-19T01:48:05;9.60;99.90
54846;DHT22;53889;50.084;8.646;2022-09-19T01:50:46;9.60;99.90
54846;DHT22;53889;50.084;8.646;2022-09-19T01:53:26;9.60;99.90
54846;DHT22;53889;50.084;8.646;2022-09-19T01:56:23;9.60;99.90
54846;DHT22;53889;50.084;8.646;2022-09-19T01:59:04;9.70;99.90
54846;DHT22;53889;50.084;8.646;2022-09-19T02:01:39;9.70;99.90
54846;DHT22;53889;50.084;8.646;2022-09-19T02:04:12;9.80;99.90
54846;DHT22;53889;50.084;8.646;2022-09-19T02:06:46;9.80;99.90
54846;DHT22;53889;50.084;8.646;2022-09-19T02:09:22;9.80;99.90
54846;DHT22;53889;50.084;8.646;2022-09-19T02:11:50;9.80;99.90
54846;DHT22;53889;50.084;8.646;2022-09-19T02:14:21;9.90;99.90
54846;DHT22;53889;50.084;8.646;2022-09-19T02:16:57;9.90;99.90
54846;DHT22;53889;50.084;8.646;2022-09-19T02:19:31;10.60;99.90
54846;DHT22;53889;50.084;8.646;2022-09-19T02:22:01;10.00;99.90
54846;DHT22;53889;50.084;8.646;2022-09-19T02:24:32;10.00;99.90
54846;DHT22;53889;50.084;8.646;2022-09-19T02:27:05;10.00;99.90
54846;DHT22;53889;50.084;8.646;2022-09-19T02:29:39;10.00;99.90
54846;DHT22;53889;50.084;8.646;2022-09-19T02:32:12;10.10;99.90
54846;DHT22;53889;50.084;8.646;2022-09-19T02:34:39;10.10;99.90
54846;DHT22;53889;50.084;8.646;2022-09-19T02:37:09;10.10;99.90
54846;DHT22;53889;50.084;8.646;2022-09-19T02:39:52;10.10;99.90
54846;DHT22;53889;50.084;8.646;2022-09-19T02:42:44;10.20;99.90
54846;DHT22;53889;50.084;8.646;2022-09-19T02:45:19;10.10;99.90
54846;DHT22;53889;50.084;8.646;2022-09-19T02:48:00;10.20;99.90
54846;DHT22;53889;50.084;8.646;2022-09-19T02:50:35;10.20;99.90
54846;DHT22;53889;50.084;8.646;2022-09-19T02:53:08;10.20;99.90
54846;DHT22;53889;50.084;8.646;2022-09-19T02:55:40;10.20;99.90
54846;DHT22;53889;50.084;8.646;2022-09-19T02:58:13;10.20;99.90
54846;DHT22;53889;50.084;8.646;2022-09-19T03:00:44;10.20;99.90
54846;DHT22;53889;50.084;8.646;2022-09-19T03:03:16;10.20;99.90
54846;DHT22;53889;50.084;8.646;2022-09-19T03:06:05;10.30;99.90
54846;DHT22;53889;50.084;8.646;2022-09-19T03:08:34;10.30;99.90
54846;DHT22;53889;50.084;8.646;2022-09-19T03:11:06;10.30;99.90
54846;DHT22;53889;50.084;8.646;2022-09-19T03:13:35;10.30;99.90
54846;DHT22;53889;50.084;8.646;2022-09-19T03:16:08;10.30;99.90
54846;DHT22;53889;50.084;8.646;2022-09-19T03:18:37;10.40;99.90
54846;DHT22;53889;50.084;8.646;2022-09-19T03:21:07;10.40;99.90
54846;DHT22;53889;50.084;8.646;2022-09-19T03:23:38;10.40;99.90
54846;DHT22;53889;50.084;8.646;2022-09-19T03:26:08;10.30;99.90
54846;DHT22;53889;50.084;8.646;2022-09-19T03:28:35;10.30;99.90
54846;DHT22;53889;50.084;8.646;2022-09-19T03:31:01;10.40;99.90
54846;DHT22;53889;50.084;8.646;2022-09-19T03:33:30;10.40;99.90
54846;DHT22;53889;50.084;8.646;2022-09-19T03:36:00;10.40;99.90
54846;DHT22;53889;50.084;8.646;2022-09-19T03:38:32;10.40;99.90
54846;DHT22;53889;50.084;8.646;2022-09-19T03:41:00;10.50;99.90
54846;DHT22;53889;50.084;8.646;2022-09-19T03:43:27;10.50;99.90
54846;DHT22;53889;50.084;8.646;2022-09-19T03:45:55;10.50;99.90
54846;DHT22;53889;50.084;8.646;2022-09-19T03:48:22;10.50;99.90
54846;DHT22;53889;50.084;8.646;2022-09-19T03:50:50;10.50;99.90
54846;DHT22;53889;50.084;8.646;2022-09-19T03:53:17;10.60;99.90
54846;DHT22;53889;50.084;8.646;2022-09-19T03:55:45;10.60;99.90
54846;DHT22;53889;50.084;8.646;2022-09-19T03:58:15;10.60;99.90
54846;DHT22;53889;50.084;8.646;2022-09-19T04:00:43;10.60;99.90
54846;DHT22;53889;50.084;8.646;2022-09-19T04:03:11;10.60;99.90
54846;DHT22;53889;50.084;8.646;2022-09-19T04:05:39;10.60;99.90
54846;DHT22;53889;50.084;8.646;2022-09-19T04:08:07;10.60;99.90
54846;DHT22;53889;50.084;8.646;2022-09-19T04:10:34;10.60;99.90
54846;DHT22;53889;50.084;8.646;2022-09-19T04:13:00;10.70;99.90
54846;DHT22;53889;50.084;8.646;2022-09-19T04:15:27;10.70;99.90
54846;DHT22;53889;50.084;8.646;2022-09-19T04:17:55;10.70;99.90
54846;DHT22;53889;50.084;8.646;2022-09-19T04:20:22;10.60;99.90
54846;DHT22;53889;50.084;8.646;2022-09-19T04:23:17;10.60;99.90
54846;DHT22;53889;50.084;8.646;2022-09-19T04:26:12;10.60;99.90
54846;DHT22;53889;50.084;8.646;2022-09-19T04:28:41;10.50;99.90
54846;DHT22;53889;50.084;8.646;2022-09-19T04:31:09;10.50;99.90
54846;DHT22;53889;50.084;8.646;2022-09-19T04:33:38;10.50;99.90
54846;DHT22;53889;50.084;8.646;2022-09-19T04:36:07;10.50;99.90
54846;DHT22;53889;50.084;8.646;2022-09-19T04:38:36;10.50;99.90
54846;DHT22;53889;50.084;8.646;2022-09-19T04:41:08;10.60;99.90
54846;DHT22;53889;50.084;8.646;2022-09-19T04:43:35;10.60;99.90
54846;DHT22;53889;50.084;8.646;2022-09-19T04:46:11;10.60;99.90
54846;DHT22;53889;50.084;8.646;2022-09-19T04:48:45;10.60;99.90
54846;DHT22;53889;50.084;8.646;2022-09-19T04:51:12;10.60;99.90
54846;DHT22;53889;50.084;8.646;2022-09-19T04:53:40;10.60;99.90
54846;DHT22;53889;50.084;8.646;2022-09-19T04:56:08;10.70;99.90
54846;DHT22;53889;50.084;8.646;2022-09-19T04:58:37;10.70;99.90
54846;DHT22;53889;50.084;8.646;2022-09-19T05:01:08;10.70;99.90
54846;DHT22;53889;50.084;8.646;2022-09-19T05:03:35;10.70;99.90
54846;DHT22;53889;50.084;8.646;2022-09-19T05:06:03;10.70;99.90
54846;DHT22;53889;50.084;8.646;2022-09-19T05:08:32;10.70;99.90
54846;DHT22;53889;50.084;8.646;2022-09-19T05:11:10;10.70;99.90
54846;DHT22;53889;50.084;8.646;2022-09-19T05:13:38;10.70;99.90
54846;DHT22;53889;50.084;8.646;2022-09-19T05:16:08;10.70;99.90
54846;DHT22;53889;50.084;8.646;2022-09-19T05:18:39;10.70;99.90
54846;DHT22;53889;50.084;8.646;2022-09-19T05:21:12;10.80;99.90
54846;DHT22;53889;50.084;8.646;2022-09-19T05:23:40;11.50;99.90
54846;DHT22;53889;50.084;8.646;2022-09-19T05:26:10;10.70;99.90
54846;DHT22;53889;50.084;8.646;2022-09-19T05:28:38;10.70;99.90
54846;DHT22;53889;50.084;8.646;2022-09-19T05:31:06;10.50;99.90
54846;DHT22;53889;50.084;8.646;2022-09-19T05:33:35;10.70;99.90
54846;DHT22;53889;50.084;8.646;2022-09-19T05:36:03;10.70;99.90
54846;DHT22;53889;50.084;8.646;2022-09-19T05:38:56;10.70;99.90
54846;DHT22;53889;50.084;8.646;2022-09-19T05:41:48;10.70;99.90
54846;DHT22;53889;50.084;8.646;2022-09-19T05:44:17;10.70;99.90
54846;DHT22;53889;50.084;8.646;2022-09-19T05:46:53;10.80;99.90
54846;DHT22;53889;50.084;8.646;2022-09-19T05:49:20;10.80;99.90
54846;DHT22;53889;50.084;8.646;2022-09-19T05:51:47;10.80;99.90
54846;DHT22;53889;50.084;8.646;2022-09-19T05:54:20;10.90;99.90
54846;DHT22;53889;50.084;8.646;2022-09-19T05:57:25;10.90;99.90
54846;DHT22;53889;50.084;8.646;2022-09-19T05:59:52;11.00;99.90
54846;DHT22;53889;50.084;8.646;2022-09-19T06:02:19;11.10;99.90
54846;DHT22;53889;50.084;8.646;2022-09-19T06:04:54;11.10;99.90
54846;DHT22;53889;50.084;8.646;2022-09-19T06:07:21;11.20;99.90
54846;DHT22;53889;50.084;8.646;2022-09-19T06:09:49;11.20;99.90
54846;DHT22;53889;50.084;8.646;2022-09-19T06:12:18;11.10;99.90
54846;DHT22;53889;50.084;8.646;2022-09-19T06:14:48;11.20;99.90
54846;DHT22;53889;50.084;8.646;2022-09-19T06:17:17;11.20;99.90
54846;DHT22;53889;50.084;8.646;2022-09-19T06:20:16;11.20;99.90
54846;DHT22;53889;50.084;8.646;2022-09-19T06:22:46;11.40;99.90
54846;DHT22;53889;50.084;8.646;2022-09-19T06:25:17;11.60;99.90
54846;DHT22;53889;50.084;8.646;2022-09-19T06:27:53;11.80;99.90
54846;DHT22;53889;50.084;8.646;2022-09-19T06:30:21;12.30;99.90
54846;DHT22;53889;50.084;8.646;2022-09-19T06:32:58;12.60;99.90
54846;DHT22;53889;50.084;8.646;2022-09-19T06:35:39;12.60;99.90
54846;DHT22;53889;50.084;8.646;2022-09-19T06:38:06;12.40;99.90
54846;DHT22;53889;50.084;8.646;2022-09-19T06:40:34;12.40;99.90
54846;DHT22;53889;50.084;8.646;2022-09-19T06:43:23;12.30;99.90
54846;DHT22;53889;50.084;8.646;2022-09-19T06:46:16;12.20;99.90
54846;DHT22;53889;50.084;8.646;2022-09-19T06:48:56;12.30;99.90
54846;DHT22;53889;50.084;8.646;2022-09-19T06:51:35;12.70;99.90
54846;DHT22;53889;50.084;8.646;2022-09-19T06:54:03;13.60;99.90
54846;DHT22;53889;50.084;8.646;2022-09-19T06:56:30;13.60;99.90
54846;DHT22;53889;50.084;8.646;2022-09-19T06:58:57;13.40;99.90
54846;DHT22;53889;50.084;8.646;2022-09-19T07:01:26;13.20;99.90
54846;DHT22;53889;50.084;8.646;2022-09-19T07:03:53;13.20;99.90
54846;DHT22;53889;50.084;8.646;2022-09-19T07:06:28;13.80;99.90
54846;DHT22;53889;50.084;8.646;2022-09-19T07:09:10;13.80;99.90
54846;DHT22;53889;50.084;8.646;2022-09-19T07:11:37;13.90;99.90
54846;DHT22;53889;50.084;8.646;2022-09-19T07:14:05;14.00;99.90
54846;DHT22;53889;50.084;8.646;2022-09-19T07:16:33;13.70;99.90
54846;DHT22;53889;50.084;8.646;2022-09-19T07:19:02;13.50;99.90
54846;DHT22;53889;50.084;8.646;2022-09-19T07:21:41;13.10;99.90
54846;DHT22;53889;50.084;8.646;2022-09-19T07:24:12;12.80;99.90
54846;DHT22;53889;50.084;8.646;2022-09-19T07:26:57;12.70;99.90
54846;DHT22;53889;50.084;8.646;2022-09-19T07:29:25;12.40;99.90
54846;DHT22;53889;50.084;8.646;2022-09-19T07:31:53;12.50;99.90
54846;DHT22;53889;50.084;8.646;2022-09-19T07:34:20;12.50;99.90
54846;DHT22;53889;50.084;8.646;2022-09-19T07:36:50;12.90;99.90
54846;DHT22;53889;50.084;8.646;2022-09-19T07:39:17;13.90;99.90
54846;DHT22;53889;50.084;8.646;2022-09-19T07:42:03;14.70;99.90
54846;DHT22;53889;50.084;8.646;2022-09-19T07:44:48;14.80;99.90
54846;DHT22;53889;50.084;8.646;2022-09-19T07:47:41;14.30;99.90
54846;DHT22;53889;50.084;8.646;2022-09-19T07:50:26;14.30;99.90
54846;DHT22;53889;50.084;8.646;2022-09-19T07:52:58;13.80;99.90
54846;DHT22;53889;50.084;8.646;2022-09-19T07:55:27;13.70;99.90
54846;DHT22;53889;50.084;8.646;2022-09-19T07:57:57;13.50;99.90
54846;DHT22;53889;50.084;8.646;2022-09-19T08:00:37;13.40;99.90
54846;DHT22;53889;50.084;8.646;2022-09-19T08:03:09;13.50;99.90
54846;DHT22;53889;50.084;8.646;2022-09-19T08:05:40;13.60;99.90
54846;DHT22;53889;50.084;8.646;2022-09-19T08:08:09;13.60;99.90
54846;DHT22;53889;50.084;8.646;2022-09-19T08:10:37;13.50;99.90
54846;DHT22;53889;50.084;8.646;2022-09-19T08:13:06;13.50;99.90
54846;DHT22;53889;50.084;8.646;2022-09-19T08:15:34;13.40;99.90
54846;DHT22;53889;50.084;8.646;2022-09-19T08:18:03;13.20;99.90
54846;DHT22;53889;50.084;8.646;2022-09-19T08:20:33;13.10;99.90
54846;DHT22;53889;50.084;8.646;2022-09-19T08:23:03;13.00;99.90
54846;DHT22;53889;50.084;8.646;2022-09-19T08:25:32;13.00;99.90
54846;DHT22;53889;50.084;8.646;2022-09-19T08:27:59;12.90;99.90
54846;DHT22;53889;50.084;8.646;2022-09-19T08:30:29;12.90;99.90
54846;DHT22;53889;50.084;8.646;2022-09-19T08:32:56;12.90;99.90
54846;DHT22;53889;50.084;8.646;2022-09-19T08:35:26;12.90;99.90
54846;DHT22;53889;50.084;8.646;2022-09-19T08:37:56;13.00;99.90
54846;DHT22;53889;50.084;8.646;2022-09-19T08:40:28;13.00;99.90
54846;DHT22;53889;50.084;8.646;2022-09-19T08:43:08;13.00;99.90
54846;DHT22;53889;50.084;8.646;2022-09-19T08:46:00;13.20;99.90
54846;DHT22;53889;50.084;8.646;2022-09-19T08:48:31;13.30;99.90
54846;DHT22;53889;50.084;8.646;2022-09-19T08:51:08;13.20;99.90
54846;DHT22;53889;50.084;8.646;2022-09-19T08:53:42;13.20;99.90
54846;DHT22;53889;50.084;8.646;2022-09-19T08:56:12;13.20;99.90
54846;DHT22;53889;50.084;8.646;2022-09-19T08:58:46;13.20;99.90
54846;DHT22;53889;50.084;8.646;2022-09-19T09:01:32;13.30;99.90
54846;DHT22;53889;50.084;8.646;2022-09-19T09:04:28;13.30;99.90
54846;DHT22;53889;50.084;8.646;2022-09-19T09:07:18;13.30;99.90
54846;DHT22;53889;50.084;8.646;2022-09-19T09:10:12;13.40;99.90
54846;DHT22;53889;50.084;8.646;2022-09-19T09:12:54;13.40;99.90
54846;DHT22;53889;50.084;8.646;2022-09-19T09:15:37;13.30;99.90
54846;DHT22;53889;50.084;8.646;2022-09-19T09:18:18;13.30;99.90
54846;DHT22;53889;50.084;8.646;2022-09-19T09:20:49;13.30;99.90
54846;DHT22;53889;50.084;8.646;2022-09-19T09:23:23;13.40;99.90
54846;DHT22;53889;50.084;8.646;2022-09-19T09:26:01;13.40;99.90
54846;DHT22;53889;50.084;8.646;2022-09-19T09:28:37;13.50;99.90
54846;DHT22;53889;50.084;8.646;2022-09-19T09:31:21;13.80;99.90
54846;DHT22;53889;50.084;8.646;2022-09-19T09:33:57;14.00;99.90
54846;DHT22;53889;50.084;8.646;2022-09-19T09:36:30;14.00;99.90
54846;DHT22;53889;50.084;8.646;2022-09-19T09:39:05;14.10;99.90
54846;DHT22;53889;50.084;8.646;2022-09-19T09:41:40;14.10;99.90
54846;DHT22;53889;50.084;8.646;2022-09-19T09:47:19;14.10;99.90
54846;DHT22;53889;50.084;8.646;2022-09-19T09:49:51;14.10;99.90
54846;DHT22;53889;50.084;8.646;2022-09-19T09:52:30;14.20;99.90
54846;DHT22;53889;50.084;8.646;2022-09-19T09:55:15;14.20;99.90
54846;DHT22;53889;50.084;8.646;2022-09-19T09:58:11;14.40;99.90
54846;DHT22;53889;50.084;8.646;2022-09-19T10:00:44;14.80;99.90
54846;DHT22;53889;50.084;8.646;2022-09-19T10:03:38;15.10;99.90
54846;DHT22;53889;50.084;8.646;2022-09-19T10:06:40;15.10;99.90
54846;DHT22;53889;50.084;8.646;2022-09-19T10:09:13;15.00;99.90
54846;DHT22;53889;50.084;8.646;2022-09-19T10:11:49;14.90;99.90
54846;DHT22;53889;50.084;8.646;2022-09-19T10:14:21;15.00;99.90
54846;DHT22;53889;50.084;8.646;2022-09-19T10:16:52;15.00;99.90
54846;DHT22;53889;50.084;8.646;2022-09-19T10:19:29;14.90;99.90
54846;DHT22;53889;50.084;8.646;2022-09-19T10:21:57;14.80;99.90
54846;DHT22;53889;50.084;8.646;2022-09-19T10:24:46;14.70;99.90
54846;DHT22;53889;50.084;8.646;2022-09-19T10:27:19;14.80;99.90
54846;DHT22;53889;50.084;8.646;2022-09-19T10:29:54;14.90;99.90
54846;DHT22;53889;50.084;8.646;2022-09-19T10:32:23;15.30;99.90
54846;DHT22;53889;50.084;8.646;2022-09-19T10:35:22;15.50;99.90
54846;DHT22;53889;50.084;8.646;2022-09-19T10:37:52;15.60;99.90
54846;DHT22;53889;50.084;8.646;2022-09-19T10:40:20;15.50;99.90
54846;DHT22;53889;50.084;8.646;2022-09-19T10:42:47;15.50;99.90
54846;DHT22;53889;50.084;8.646;2022-09-19T10:45:27;15.50;99.90
54846;DHT22;53889;50.084;8.646;2022-09-19T10:48:00;15.40;99.90
54846;DHT22;53889;50.084;8.646;2022-09-19T10:50:29;15.70;99.90
54846;DHT22;53889;50.084;8.646;2022-09-19T10:53:05;15.70;99.90
54846;DHT22;53889;50.084;8.646;2022-09-19T10:55:35;15.70;99.90
54846;DHT22;53889;50.084;8.646;2022-09-19T10:58:13;16.10;99.90
54846;DHT22;53889;50.084;8.646;2022-09-19T11:00:50;16.20;99.90
54846;DHT22;53889;50.084;8.646;2022-09-19T11:03:20;16.90;99.90
54846;DHT22;53889;50.084;8.646;2022-09-19T11:06:05;17.40;99.90
54846;DHT22;53889;50.084;8.646;2022-09-19T11:08:39;17.50;99.60
54846;DHT22;53889;50.084;8.646;2022-09-19T11:11:20;17.30;99.90
54846;DHT22;53889;50.084;8.646;2022-09-19T11:14:16;17.40;99.10
54846;DHT22;53889;50.084;8.646;2022-09-19T11:17:12;17.40;99.20
54846;DHT22;53889;50.084;8.646;2022-09-19T11:19:52;17.00;99.70
54846;DHT22;53889;50.084;8.646;2022-09-19T11:22:37;16.80;99.90
54846;DHT22;53889;50.084;8.646;2022-09-19T11:25:15;16.80;99.90
54846;DHT22;53889;50.084;8.646;2022-09-19T11:27:58;17.10;99.90
54846;DHT22;53889;50.084;8.646;2022-09-19T11:30:32;16.70;99.90
54846;DHT22;53889;50.084;8.646;2022-09-19T11:33:30;16.70;99.90
54846;DHT22;53889;50.084;8.646;2022-09-19T11:36:28;16.60;99.90
54846;DHT22;53889;50.084;8.646;2022-09-19T11:39:04;16.90;99.60
54846;DHT22;53889;50.084;8.646;2022-09-19T11:41:46;16.90;99.10
54846;DHT22;53889;50.084;8.646;2022-09-19T11:44:41;16.80;99.20
54846;DHT22;53889;50.084;8.646;2022-09-19T11:47:22;16.60;99.50
54846;DHT22;53889;50.084;8.646;2022-09-19T11:52:51;16.70;99.80
54846;DHT22;53889;50.084;8.646;2022-09-19T11:55:36;16.20;99.90
54846;DHT22;53889;50.084;8.646;2022-09-19T11:58:10;16.10;99.90
54846;DHT22;53889;50.084;8.646;2022-09-19T12:00:48;16.20;99.90
54846;DHT22;53889;50.084;8.646;2022-09-19T12:03:30;16.90;99.50
54846;DHT22;53889;50.084;8.646;2022-09-19T12:06:19;17.70;98.40
54846;DHT22;53889;50.084;8.646;2022-09-19T12:09:00;18.10;96.80
54846;DHT22;53889;50.084;8.646;2022-09-19T12:11:37;18.00;96.90
54846;DHT22;53889;50.084;8.646;2022-09-19T12:14:11;17.90;97.20
54846;DHT22;53889;50.084;8.646;2022-09-19T12:16:46;17.80;96.60
54846;DHT22;53889;50.084;8.646;2022-09-19T12:19:19;17.60;97.00
54846;DHT22;53889;50.084;8.646;2022-09-19T12:21:53;17.50;96.50
54846;DHT22;53889;50.084;8.646;2022-09-19T12:24:25;17.30;96.70
54846;DHT22;53889;50.084;8.646;2022-09-19T12:27:15;17.30;97.10
54846;DHT22;53889;50.084;8.646;2022-09-19T12:29:50;17.30;96.90
54846;DHT22;53889;50.084;8.646;2022-09-19T12:32:24;17.60;96.80
54846;DHT22;53889;50.084;8.646;2022-09-19T12:34:56;18.40;95.60
54846;DHT22;53889;50.084;8.646;2022-09-19T12:37:35;19.20;94.30
54846;DHT22;53889;50.084;8.646;2022-09-19T12:40:13;19.70;93.40
54846;DHT22;53889;50.084;8.646;2022-09-19T12:42:45;19.30;93.30
54846;DHT22;53889;50.084;8.646;2022-09-19T12:45:16;19.30;93.20
54846;DHT22;53889;50.084;8.646;2022-09-19T12:47:59;19.30;92.80
54846;DHT22;53889;50.084;8.646;2022-09-19T12:50:49;19.50;92.90
54846;DHT22;53889;50.084;8.646;2022-09-19T12:53:27;19.30;92.40
54846;DHT22;53889;50.084;8.646;2022-09-19T12:56:02;19.10;92.60
54846;DHT22;53889;50.084;8.646;2022-09-19T12:58:34;18.50;93.50
54846;DHT22;53889;50.084;8.646;2022-09-19T13:01:13;18.70;93.60
54846;DHT22;53889;50.084;8.646;2022-09-19T13:03:48;19.10;92.50
54846;DHT22;53889;50.084;8.646;2022-09-19T13:06:19;20.00;92.00
54846;DHT22;53889;50.084;8.646;2022-09-19T13:08:51;19.70;91.50
54846;DHT22;53889;50.084;8.646;2022-09-19T13:11:25;19.50;91.90
54846;DHT22;53889;50.084;8.646;2022-09-19T13:13:57;19.40;92.10
54846;DHT22;53889;50.084;8.646;2022-09-19T13:16:29;19.20;92.40
54846;DHT22;53889;50.084;8.646;2022-09-19T13:18:58;19.00;92.20
54846;DHT22;53889;50.084;8.646;2022-09-19T13:21:43;18.70;93.10
54846;DHT22;53889;50.084;8.646;2022-09-19T13:24:38;18.30;94.20
54846;DHT22;53889;50.084;8.646;2022-09-19T13:27:23;17.50;98.30
54846;DHT22;53889;50.084;8.646;2022-09-19T13:29:51;17.30;99.90
54846;DHT22;53889;50.084;8.646;2022-09-19T13:32:29;17.20;99.20
54846;DHT22;53889;50.084;8.646;2022-09-19T13:35:11;17.20;98.70
54846;DHT22;53889;50.084;8.646;2022-09-19T13:37:51;17.30;97.80
54846;DHT22;53889;50.084;8.646;2022-09-19T13:40:37;17.40;97.40
54846;DHT22;53889;50.084;8.646;2022-09-19T13:43:18;17.50;96.10
54846;DHT22;53889;50.084;8.646;2022-09-19T13:45:49;17.80;96.50
54846;DHT22;53889;50.084;8.646;2022-09-19T13:48:30;17.90;95.20
54846;DHT22;53889;50.084;8.646;2022-09-19T13:51:03;18.00;95.10
54846;DHT22;53889;50.084;8.646;2022-09-19T13:53:36;18.00;94.50
54846;DHT22;53889;50.084;8.646;2022-09-19T13:56:20;17.70;94.70
54846;DHT22;53889;50.084;8.646;2022-09-19T13:59:05;17.60;94.20
54846;DHT22;53889;50.084;8.646;2022-09-19T14:01:36;17.60;94.90
54846;DHT22;53889;50.084;8.646;2022-09-19T14:04:14;17.70;94.80
54846;DHT22;53889;50.084;8.646;2022-09-19T14:06:57;17.50;95.00
54846;DHT22;53889;50.084;8.646;2022-09-19T14:09:34;17.50;95.50
54846;DHT22;53889;50.084;8.646;2022-09-19T14:15:39;18.20;95.80
54846;DHT22;53889;50.084;8.646;2022-09-19T14:18:28;17.60;95.70
54846;DHT22;53889;50.084;8.646;2022-09-19T14:20:58;17.50;95.20
54846;DHT22;53889;50.084;8.646;2022-09-19T14:23:27;17.60;95.50
54846;DHT22;53889;50.084;8.646;2022-09-19T14:25:56;17.70;95.40
54846;DHT22;53889;50.084;8.646;2022-09-19T14:28:43;17.80;95.00
54846;DHT22;53889;50.084;8.646;2022-09-19T14:31:23;17.90;94.90
54846;DHT22;53889;50.084;8.646;2022-09-19T14:34:30;17.70;94.50
54846;DHT22;53889;50.084;8.646;2022-09-19T14:43:40;16.40;98.70
54846;DHT22;53889;50.084;8.646;2022-09-19T14:46:20;16.30;99.90
54846;DHT22;53889;50.084;8.646;2022-09-19T14:48:54;14.80;99.90
54846;DHT22;53889;50.084;8.646;2022-09-19T14:51:33;14.30;99.90
54846;DHT22;53889;50.084;8.646;2022-09-19T14:54:10;14.70;99.90
54846;DHT22;53889;50.084;8.646;2022-09-19T14:56:39;13.80;99.90
54846;DHT22;53889;50.084;8.646;2022-09-19T14:59:17;13.80;99.90
54846;DHT22;53889;50.084;8.646;2022-09-19T15:01:45;13.70;99.90
54846;DHT22;53889;50.084;8.646;2022-09-19T15:04:18;13.90;99.90
54846;DHT22;53889;50.084;8.646;2022-09-19T15:06:50;14.00;99.90
54846;DHT22;53889;50.084;8.646;2022-09-19T15:09:19;14.20;99.90
54846;DHT22;53889;50.084;8.646;2022-09-19T15:11:48;14.40;99.90
54846;DHT22;53889;50.084;8.646;2022-09-19T15:14:16;14.60;99.90
54846;DHT22;53889;50.084;8.646;2022-09-19T15:16:49;14.70;99.90
54846;DHT22;53889;50.084;8.646;2022-09-19T15:19:17;14.80;99.90
54846;DHT22;53889;50.084;8.646;2022-09-19T15:21:45;15.00;99.90
54846;DHT22;53889;50.084;8.646;2022-09-19T15:24:14;15.20;99.90
54846;DHT22;53889;50.084;8.646;2022-09-19T15:26:44;15.20;99.90
54846;DHT22;53889;50.084;8.646;2022-09-19T15:29:22;15.20;99.90
54846;DHT22;53889;50.084;8.646;2022-09-19T15:32:15;15.30;99.90
54846;DHT22;53889;50.084;8.646;2022-09-19T15:34:43;15.30;99.90
54846;DHT22;53889;50.084;8.646;2022-09-19T15:37:19;15.10;99.90
54846;DHT22;53889;50.084;8.646;2022-09-19T15:39:48;15.10;99.90
54846;DHT22;53889;50.084;8.646;2022-09-19T15:42:15;15.00;99.90
54846;DHT22;53889;50.084;8.646;2022-09-19T15:44:43;15.00;99.90
54846;DHT22;53889;50.084;8.646;2022-09-19T15:47:14;14.90;99.90
54846;DHT22;53889;50.084;8.646;2022-09-19T15:49:42;15.00;99.90
54846;DHT22;53889;50.084;8.646;2022-09-19T15:52:13;15.00;99.90
54846;DHT22;53889;50.084;8.646;2022-09-19T15:54:46;15.00;99.90
54846;DHT22;53889;50.084;8.646;2022-09-19T15:57:20;15.10;99.90
54846;DHT22;53889;50.084;8.646;2022-09-19T16:00:00;15.10;99.90
54846;DHT22;53889;50.084;8.646;2022-09-19T16:02:44;15.10;99.90
54846;DHT22;53889;50.084;8.646;2022-09-19T16:05:14;15.10;99.90
54846;DHT22;53889;50.084;8.646;2022-09-19T16:07:46;14.90;99.90
54846;DHT22;53889;50.084;8.646;2022-09-19T16:10:34;14.80;99.90
54846;DHT22;53889;50.084;8.646;2022-09-19T16:13:13;14.90;99.90
54846;DHT22;53889;50.084;8.646;2022-09-19T16:15:54;14.90;99.90
54846;DHT22;53889;50.084;8.646;2022-09-19T16:18:22;14.90;99.90
54846;DHT22;53889;50.084;8.646;2022-09-19T16:21:05;14.80;99.90
54846;DHT22;53889;50.084;8.646;2022-09-19T16:23:41;14.80;99.90
54846;DHT22;53889;50.084;8.646;2022-09-19T16:26:09;13.60;99.90
54846;DHT22;53889;50.084;8.646;2022-09-19T16:28:38;14.50;99.90
54846;DHT22;53889;50.084;8.646;2022-09-19T16:31:09;14.50;99.90
54846;DHT22;53889;50.084;8.646;2022-09-19T16:33:46;14.50;99.90
54846;DHT22;53889;50.084;8.646;2022-09-19T16:36:14;14.40;99.90